Time;durP1;ratioP1;P1;durP2;ratioP2;P2;SDS_P1;SDS_P2;PMS_P1;PMS_P2;Temp;Humidity;BMP_temperature;BMP_pressure;BME280_temperature;BME280_humidity;BME280_pressure;Samples;Min_cycle;Max_cycle;Signal;HPM_P1;HPM_P2
2022/02/01 00:01:16;;;;;;;;;;;4.70;99.90;;;;;;5215829;27;19996;-83
2022/02/01 00:03:49;;;;;;;;;;;4.70;99.90;;;;;;5216059;27;20003;-83
2022/02/01 00:06:27;;;;;;;;;;;4.70;99.90;;;;;;5198602;27;19999;-83
2022/02/01 00:11:47;;;;;;;;;;;4.70;99.90;;;;;;5217199;27;20003;-83
2022/02/01 00:14:34;;;;;;;;;;;4.70;99.90;;;;;;5215810;27;20006;-83
2022/02/01 00:34:03;;;;;;;;;;;4.60;99.90;;;;;;5214959;27;23819;-83
2022/02/01 00:36:38;;;;;;;;;;;4.60;99.90;;;;;;5215661;27;19996;-83
2022/02/01 00:39:09;;;;;;;;;;;4.60;99.90;;;;;;5198224;27;20014;-83
2022/02/01 00:41:42;;;;;;;;;;;4.60;99.90;;;;;;5215725;27;19995;-83
2022/02/01 00:44:12;;;;;;;;;;;4.60;99.90;;;;;;5216749;27;20414;-83
2022/02/01 00:46:45;;;;;;;;;;;4.60;99.90;;;;;;5197777;27;20039;-83
2022/02/01 00:49:12;;;;;;;;;;;4.50;99.90;;;;;;5215655;27;19999;-83
2022/02/01 00:51:39;;;;;;;;;;;4.50;99.90;;;;;;5215785;27;20000;-83
2022/02/01 00:54:09;;;;;;;;;;;4.50;99.90;;;;;;5198052;27;20058;-83
2022/02/01 00:56:39;;;;;;;;;;;4.50;99.90;;;;;;5215228;27;20335;-83
2022/02/01 00:59:10;;;;;;;;;;;4.50;99.90;;;;;;5215267;27;19995;-83
2022/02/01 01:01:41;;;;;;;;;;;4.50;99.90;;;;;;5198336;27;20360;-83
2022/02/01 01:04:09;;;;;;;;;;;4.50;99.90;;;;;;5215127;27;19992;-83
2022/02/01 01:06:39;;;;;;;;;;;4.50;99.90;;;;;;5215246;27;20345;-83
2022/02/01 01:09:09;;;;;;;;;;;4.40;99.90;;;;;;5215323;27;20006;-83
2022/02/01 01:11:37;;;;;;;;;;;4.40;99.90;;;;;;5197426;27;19988;-83
2022/02/01 01:14:37;;;;;;;;;;;4.40;99.90;;;;;;5198214;27;19998;-83
2022/02/01 01:44:42;;;;;;;;;;;4.40;99.90;;;;;;5217091;27;19998;-83
2022/02/01 01:55:39;;;;;;;;;;;4.30;99.90;;;;;;5215993;27;21090;-83
2022/02/01 01:58:09;;;;;;;;;;;4.20;99.90;;;;;;5197613;27;44631;-83
2022/02/01 02:03:09;;;;;;;;;;;4.30;99.90;;;;;;5215809;27;20400;-83
2022/02/01 02:05:40;;;;;;;;;;;4.30;99.90;;;;;;5216362;27;20044;-83
2022/02/01 02:08:09;;;;;;;;;;;4.20;99.90;;;;;;5216526;27;20354;-83
2022/02/01 02:10:50;;;;;;;;;;;4.30;99.90;;;;;;5198815;27;19991;-83
2022/02/01 02:15:59;;;;;;;;;;;4.20;99.90;;;;;;5216334;27;20006;-83
2022/02/01 02:18:31;;;;;;;;;;;4.20;99.90;;;;;;5216357;27;20030;-83
2022/02/01 02:21:02;;;;;;;;;;;4.20;99.90;;;;;;5197260;27;41852;-83
2022/02/01 02:23:29;;;;;;;;;;;4.20;99.90;;;;;;5215918;27;32463;-84
2022/02/01 02:25:57;;;;;;;;;;;4.20;99.90;;;;;;5214887;27;37536;-83
2022/02/01 02:28:24;;;;;;;;;;;4.20;99.90;;;;;;5215467;27;34575;-83
2022/02/01 02:30:51;;;;;;;;;;;4.30;99.90;;;;;;5198639;27;20041;-83
2022/02/01 02:33:19;;;;;;;;;;;4.20;99.90;;;;;;5216204;27;20414;-83
2022/02/01 02:35:54;;;;;;;;;;;4.30;99.90;;;;;;5216196;27;20009;-83
2022/02/01 02:38:31;;;;;;;;;;;4.20;99.90;;;;;;5216426;27;19995;-83
2022/02/01 02:46:12;;;;;;;;;;;4.30;99.90;;;;;;5216112;27;20051;-83
2022/02/01 02:48:42;;;;;;;;;;;4.30;99.90;;;;;;5216028;27;20010;-83
2022/02/01 02:51:11;;;;;;;;;;;4.30;99.90;;;;;;5198556;27;20002;-83
2022/02/01 02:53:41;;;;;;;;;;;4.30;99.90;;;;;;5217229;27;20017;-83
2022/02/01 02:56:08;;;;;;;;;;;4.20;99.90;;;;;;5216401;27;19999;-83
2022/02/01 02:58:36;;;;;;;;;;;4.30;99.90;;;;;;5215893;27;20009;-83
2022/02/01 03:01:06;;;;;;;;;;;4.30;99.90;;;;;;5216903;27;20384;-83
2022/02/01 03:03:34;;;;;;;;;;;4.20;99.90;;;;;;5201977;27;20444;-83
2022/02/01 03:06:06;;;;;;;;;;;4.30;99.90;;;;;;5219338;27;35785;-83
2022/02/01 03:08:36;;;;;;;;;;;4.20;99.90;;;;;;5219777;27;19998;-83
2022/02/01 03:11:05;;;;;;;;;;;4.30;99.90;;;;;;5200524;27;43485;-83
2022/02/01 03:13:33;;;;;;;;;;;4.30;99.90;;;;;;5202286;27;20181;-83
2022/02/01 03:21:26;;;;;;;;;;;4.20;99.90;;;;;;5238622;27;20020;-83
2022/02/01 03:23:53;;;;;;;;;;;4.20;99.90;;;;;;5220216;27;20047;-83
2022/02/01 03:26:20;;;;;;;;;;;4.30;99.90;;;;;;5202143;27;20046;-83
2022/02/01 03:28:50;;;;;;;;;;;4.20;99.90;;;;;;5219705;27;20067;-83
2022/02/01 03:31:20;;;;;;;;;;;4.20;99.90;;;;;;5220355;27;19995;-83
2022/02/01 03:33:48;;;;;;;;;;;4.20;99.90;;;;;;5218994;27;39622;-83
2022/02/01 03:36:21;;;;;;;;;;;4.30;99.90;;;;;;5201842;27;20347;-83
2022/02/01 03:38:48;;;;;;;;;;;4.20;99.90;;;;;;5200957;27;32938;-83
2022/02/01 03:41:15;;;;;;;;;;;4.20;99.90;;;;;;5218480;27;32149;-83
2022/02/01 03:43:43;;;;;;;;;;;4.20;99.90;;;;;;5201695;27;20399;-83
2022/02/01 03:46:12;;;;;;;;;;;4.20;99.90;;;;;;5217977;27;42321;-83
2022/02/01 03:48:39;;;;;;;;;;;4.20;99.90;;;;;;5200551;27;34278;-83
2022/02/01 03:51:08;;;;;;;;;;;4.20;99.90;;;;;;5218251;27;35389;-83
2022/02/01 03:53:36;;;;;;;;;;;4.20;99.90;;;;;;5200425;27;41009;-84
2022/02/01 03:56:03;;;;;;;;;;;4.20;99.90;;;;;;5218663;27;42293;-83
2022/02/01 03:58:31;;;;;;;;;;;4.20;99.90;;;;;;5200504;27;36164;-83
2022/02/01 04:00:58;;;;;;;;;;;4.10;99.90;;;;;;5219466;27;20003;-83
2022/02/01 04:03:29;;;;;;;;;;;4.20;99.90;;;;;;5201964;27;20000;-83
2022/02/01 04:05:57;;;;;;;;;;;4.20;99.90;;;;;;5218208;27;34081;-83
2022/02/01 04:08:26;;;;;;;;;;;4.20;99.90;;;;;;5200230;27;41889;-83
2022/02/01 04:10:54;;;;;;;;;;;4.20;99.90;;;;;;5201773;27;20027;-83
2022/02/01 04:13:21;;;;;;;;;;;4.10;99.90;;;;;;5218072;27;37605;-83
2022/02/01 04:15:48;;;;;;;;;;;4.10;99.90;;;;;;5217986;27;31976;-83
2022/02/01 04:18:16;;;;;;;;;;;4.10;99.90;;;;;;5218868;27;25871;-83
2022/02/01 04:20:44;;;;;;;;;;;4.10;99.90;;;;;;5200935;27;26266;-83
2022/02/01 04:23:11;;;;;;;;;;;4.10;99.90;;;;;;5200379;27;38906;-83
2022/02/01 04:25:38;;;;;;;;;;;4.10;99.90;;;;;;5236705;27;40708;-83
2022/02/01 04:28:07;;;;;;;;;;;4.10;99.90;;;;;;5219273;27;20019;-83
2022/02/01 04:30:34;;;;;;;;;;;4.10;99.90;;;;;;5200046;27;41477;-83
2022/02/01 04:33:07;;;;;;;;;;;4.10;99.90;;;;;;5236624;27;44229;-83
2022/02/01 04:35:35;;;;;;;;;;;4.10;99.90;;;;;;5200559;27;34118;-83
2022/02/01 04:38:02;;;;;;;;;;;4.10;99.90;;;;;;5217947;27;36592;-83
2022/02/01 04:40:33;;;;;;;;;;;4.10;99.90;;;;;;5237000;27;31308;-83
2022/02/01 04:43:02;;;;;;;;;;;4.10;99.90;;;;;;5200429;27;38912;-83
2022/02/01 04:45:30;;;;;;;;;;;4.10;99.90;;;;;;5218097;27;35546;-83
2022/02/01 04:47:57;;;;;;;;;;;4.10;99.90;;;;;;5200409;27;30782;-84
2022/02/01 04:50:26;;;;;;;;;;;4.10;99.90;;;;;;5200118;27;39082;-83
2022/02/01 04:52:54;;;;;;;;;;;4.10;99.90;;;;;;5200474;27;25056;-83
2022/02/01 04:55:25;;;;;;;;;;;4.00;99.90;;;;;;5200328;27;29501;-83
2022/02/01 04:57:56;;;;;;;;;;;4.10;99.90;;;;;;5219178;27;20059;-83
2022/02/01 05:00:25;;;;;;;;;;;4.10;99.90;;;;;;5236962;27;45024;-83
2022/02/01 05:02:53;;;;;;;;;;;4.00;99.90;;;;;;5219290;27;20066;-83
2022/02/01 05:05:28;;;;;;;;;;;4.10;99.90;;;;;;5217642;27;40371;-83
2022/02/01 05:08:01;;;;;;;;;;;4.10;99.90;;;;;;5200305;27;32512;-83
2022/02/01 05:10:29;;;;;;;;;;;4.10;99.90;;;;;;5219687;27;19996;-83
2022/02/01 05:15:47;;;;;;;;;;;4.00;99.90;;;;;;5219073;27;19999;-83
2022/02/01 05:18:21;;;;;;;;;;;4.10;99.90;;;;;;5201027;27;19991;-83
2022/02/01 05:23:23;;;;;;;;;;;4.00;99.90;;;;;;5237399;27;39687;-83
2022/02/01 05:25:51;;;;;;;;;;;4.10;99.90;;;;;;5199963;27;35121;-83
2022/02/01 05:28:18;;;;;;;;;;;4.10;99.90;;;;;;5217777;27;37714;-83
2022/02/01 05:30:45;;;;;;;;;;;4.00;99.90;;;;;;5200323;27;34127;-83
2022/02/01 05:33:13;;;;;;;;;;;4.00;99.90;;;;;;5201562;27;20038;-83
2022/02/01 05:35:40;;;;;;;;;;;4.10;99.90;;;;;;5236855;27;41231;-83
2022/02/01 05:38:07;;;;;;;;;;;4.10;99.90;;;;;;5237831;27;22533;-83
2022/02/01 05:40:37;;;;;;;;;;;4.00;99.90;;;;;;5201063;27;19996;-83
2022/02/01 05:43:13;;;;;;;;;;;4.00;99.90;;;;;;5217484;27;43928;-83
2022/02/01 05:45:41;;;;;;;;;;;4.00;99.90;;;;;;5237820;27;19999;-83
2022/02/01 05:48:11;;;;;;;;;;;4.00;99.90;;;;;;5217562;27;42425;-83
2022/02/01 05:50:40;;;;;;;;;;;4.00;99.90;;;;;;5199918;27;43107;-83
2022/02/01 05:53:07;;;;;;;;;;;4.00;99.90;;;;;;5218271;27;39183;-83
2022/02/01 05:55:37;;;;;;;;;;;4.00;99.90;;;;;;5200185;27;30309;-83
2022/02/01 05:58:04;;;;;;;;;;;4.00;99.90;;;;;;5217544;27;36599;-84
2022/02/01 06:00:34;;;;;;;;;;;4.00;99.90;;;;;;5217867;27;32785;-83
2022/02/01 06:03:01;;;;;;;;;;;4.00;99.90;;;;;;5199744;27;41280;-83
2022/02/01 06:05:28;;;;;;;;;;;4.00;99.90;;;;;;5199756;27;44136;-84
2022/02/01 06:07:55;;;;;;;;;;;4.00;99.90;;;;;;5200115;27;40218;-83
2022/02/01 06:10:25;;;;;;;;;;;4.00;99.90;;;;;;5218204;27;40733;-83
2022/02/01 06:12:52;;;;;;;;;;;4.00;99.90;;;;;;5201076;27;36976;-83
2022/02/01 06:15:22;;;;;;;;;;;4.00;99.90;;;;;;5219173;27;41931;-84
2022/02/01 06:17:49;;;;;;;;;;;4.00;99.90;;;;;;5218964;27;34095;-83
2022/02/01 06:20:16;;;;;;;;;;;4.00;99.90;;;;;;5238257;27;37917;-83
2022/02/01 06:22:44;;;;;;;;;;;4.00;99.90;;;;;;5201138;27;37000;-83
2022/02/01 06:25:12;;;;;;;;;;;4.00;99.90;;;;;;5219270;27;44454;-84
2022/02/01 06:27:40;;;;;;;;;;;4.00;99.90;;;;;;5220679;27;20040;-83
2022/02/01 06:30:08;;;;;;;;;;;4.00;99.90;;;;;;5200808;27;39497;-83
2022/02/01 06:32:36;;;;;;;;;;;4.00;99.90;;;;;;5218353;27;36753;-83
2022/02/01 06:35:04;;;;;;;;;;;4.00;99.90;;;;;;5219681;27;20051;-83
2022/02/01 06:37:32;;;;;;;;;;;4.00;99.90;;;;;;5201760;27;20358;-83
2022/02/01 06:39:59;;;;;;;;;;;4.00;99.90;;;;;;5202204;27;20375;-83
2022/02/01 06:42:28;;;;;;;;;;;4.00;99.90;;;;;;5201315;27;25391;-83
2022/02/01 06:44:58;;;;;;;;;;;4.00;99.90;;;;;;5200883;27;38827;-83
2022/02/01 06:47:26;;;;;;;;;;;4.00;99.90;;;;;;5200879;27;40762;-83
2022/02/01 06:49:53;;;;;;;;;;;4.00;99.90;;;;;;5218278;27;41288;-83
2022/02/01 06:52:20;;;;;;;;;;;4.00;99.90;;;;;;5218299;27;40904;-83
2022/02/01 06:54:47;;;;;;;;;;;4.00;99.90;;;;;;5219083;27;24437;-83
2022/02/01 06:57:14;;;;;;;;;;;3.90;99.90;;;;;;5238650;27;20073;-83
2022/02/01 06:59:41;;;;;;;;;;;3.90;99.90;;;;;;5201000;27;27839;-83
2022/02/01 07:02:11;;;;;;;;;;;4.00;99.90;;;;;;5197549;27;28633;-83
2022/02/01 07:04:39;;;;;;;;;;;3.90;99.90;;;;;;5215020;27;42594;-83
2022/02/01 07:07:06;;;;;;;;;;;3.90;99.90;;;;;;5198129;27;20035;-84
2022/02/01 07:09:37;;;;;;;;;;;3.90;99.90;;;;;;5216385;27;20370;-83
2022/02/01 07:12:04;;;;;;;;;;;4.00;99.90;;;;;;5214680;27;38059;-84
2022/02/01 07:14:31;;;;;;;;;;;3.90;99.90;;;;;;5197558;27;29061;-83
2022/02/01 07:16:58;;;;;;;;;;;3.90;99.90;;;;;;5215363;27;25109;-83
2022/02/01 07:19:25;;;;;;;;;;;3.90;99.90;;;;;;5214861;27;33322;-83
2022/02/01 07:21:55;;;;;;;;;;;3.90;99.90;;;;;;5215516;27;20007;-83
2022/02/01 07:24:31;;;;;;;;;;;4.00;99.90;;;;;;5197011;27;42992;-83
2022/02/01 07:27:08;;;;;;;;;;;3.90;99.90;;;;;;5197076;27;42090;-84
2022/02/01 07:29:35;;;;;;;;;;;3.90;99.90;;;;;;5197284;27;26683;-83
2022/02/01 07:32:03;;;;;;;;;;;3.90;99.90;;;;;;5215177;27;20887;-84
2022/02/01 07:34:30;;;;;;;;;;;3.90;99.90;;;;;;5216478;27;37108;-84
2022/02/01 07:37:00;;;;;;;;;;;3.90;99.90;;;;;;5196887;27;32414;-84
2022/02/01 07:39:27;;;;;;;;;;;3.90;99.90;;;;;;5214322;27;39647;-84
2022/02/01 07:41:54;;;;;;;;;;;3.90;99.90;;;;;;5196967;27;36074;-83
2022/02/01 07:44:21;;;;;;;;;;;3.90;99.90;;;;;;5197372;27;35038;-84
2022/02/01 07:46:50;;;;;;;;;;;4.00;99.90;;;;;;5196511;27;45434;-85
2022/02/01 07:49:21;;;;;;;;;;;4.00;99.90;;;;;;5215136;27;31685;-83
2022/02/01 07:51:52;;;;;;;;;;;3.90;99.90;;;;;;5216019;27;20384;-83
2022/02/01 07:54:22;;;;;;;;;;;4.00;99.90;;;;;;5215188;27;31322;-84
2022/02/01 07:56:49;;;;;;;;;;;4.00;99.90;;;;;;5196549;27;45135;-84
2022/02/01 07:59:18;;;;;;;;;;;4.00;99.90;;;;;;5215154;27;20390;-84
2022/02/01 08:01:51;;;;;;;;;;;4.00;99.90;;;;;;5198171;27;20010;-83
2022/02/01 08:04:18;;;;;;;;;;;4.00;99.90;;;;;;5215228;27;34896;-84
2022/02/01 08:06:46;;;;;;;;;;;4.00;99.90;;;;;;5197527;27;26828;-83
2022/02/01 08:09:26;;;;;;;;;;;4.00;99.90;;;;;;5215447;27;20025;-82
2022/02/01 08:11:53;;;;;;;;;;;4.00;99.90;;;;;;5214267;27;38007;-84
2022/02/01 08:17:31;;;;;;;;;;;4.00;99.90;;;;;;5217579;27;20035;-84
2022/02/01 08:20:03;;;;;;;;;;;4.00;99.90;;;;;;5196684;27;40669;-84
2022/02/01 08:25:14;;;;;;;;;;;4.00;99.90;;;;;;5214666;27;31534;-84
2022/02/01 08:27:42;;;;;;;;;;;4.00;99.90;;;;;;5214140;27;42499;-83
2022/02/01 08:30:10;;;;;;;;;;;4.00;99.90;;;;;;5196886;27;33783;-83
2022/02/01 08:32:39;;;;;;;;;;;4.00;99.90;;;;;;5213780;27;46267;-83
2022/02/01 08:35:07;;;;;;;;;;;4.00;99.90;;;;;;5196831;27;28258;-83
2022/02/01 08:37:39;;;;;;;;;;;4.00;99.90;;;;;;5215109;27;19987;-84
2022/02/01 08:40:08;;;;;;;;;;;4.00;99.90;;;;;;5196606;27;39436;-83
2022/02/01 08:42:35;;;;;;;;;;;4.00;99.90;;;;;;5214690;27;26772;-83
2022/02/01 08:45:05;;;;;;;;;;;4.10;99.90;;;;;;5196467;27;44318;-81
2022/02/01 08:47:35;;;;;;;;;;;4.10;99.90;;;;;;5196240;27;46737;-83
2022/02/01 08:50:02;;;;;;;;;;;4.10;99.90;;;;;;5196719;27;37633;-84
2022/02/01 08:52:52;;;;;;;;;;;4.10;99.90;;;;;;5213894;27;39518;-83
2022/02/01 08:58:00;;;;;;;;;;;4.10;99.90;;;;;;5213941;27;38834;-83
2022/02/01 09:00:28;;;;;;;;;;;4.10;99.90;;;;;;5196434;27;40108;-83
2022/02/01 09:02:56;;;;;;;;;;;4.10;99.90;;;;;;5213884;27;42195;-83
2022/02/01 09:05:24;;;;;;;;;;;4.10;99.90;;;;;;5196319;27;45047;-83
2022/02/01 09:07:52;;;;;;;;;;;4.10;99.90;;;;;;5213726;27;45544;-83
2022/02/01 09:10:19;;;;;;;;;;;4.10;99.90;;;;;;5213927;27;39681;-83
2022/02/01 09:12:46;;;;;;;;;;;4.20;99.90;;;;;;5214047;27;33168;-84
2022/02/01 09:15:14;;;;;;;;;;;4.20;99.90;;;;;;5214298;27;27929;-84
2022/02/01 09:17:58;;;;;;;;;;;4.20;99.90;;;;;;5215748;27;20034;-82
2022/02/01 09:20:28;;;;;;;;;;;4.10;99.90;;;;;;5214485;27;39399;-83
2022/02/01 09:22:55;;;;;;;;;;;4.20;99.90;;;;;;5196509;27;33857;-83
2022/02/01 09:25:22;;;;;;;;;;;4.20;99.90;;;;;;5196288;27;46973;-83
2022/02/01 09:27:50;;;;;;;;;;;4.20;99.90;;;;;;5214885;27;44657;-83
2022/02/01 09:30:20;;;;;;;;;;;4.20;99.90;;;;;;5214473;27;30205;-83
2022/02/01 09:32:47;;;;;;;;;;;4.20;99.90;;;;;;5196892;27;33510;-83
2022/02/01 09:35:18;;;;;;;;;;;4.20;99.90;;;;;;5196230;27;40579;-84
2022/02/01 09:37:48;;;;;;;;;;;4.20;99.90;;;;;;5213827;27;38912;-83
2022/02/01 09:40:35;;;;;;;;;;;4.30;99.90;;;;;;5199951;27;30040;-83
2022/02/01 09:43:02;;;;;;;;;;;4.30;99.90;;;;;;5196882;27;31412;-82
2022/02/01 09:45:33;;;;;;;;;;;4.30;99.90;;;;;;5198243;27;19992;-83
2022/02/01 09:48:04;;;;;;;;;;;4.30;99.90;;;;;;5198474;27;33619;-82
2022/02/01 09:50:31;;;;;;;;;;;4.30;99.90;;;;;;5198032;27;34480;-83
2022/02/01 09:52:58;;;;;;;;;;;4.30;99.90;;;;;;5215368;27;34539;-83
2022/02/01 09:55:27;;;;;;;;;;;4.30;99.90;;;;;;5215673;27;45321;-83
2022/02/01 09:57:55;;;;;;;;;;;4.30;99.90;;;;;;5197316;27;45305;-83
2022/02/01 10:00:30;;;;;;;;;;;4.30;99.90;;;;;;5197758;27;34217;-83
2022/02/01 10:03:14;;;;;;;;;;;4.40;99.90;;;;;;5200446;27;20000;-83
2022/02/01 10:05:43;;;;;;;;;;;4.30;99.90;;;;;;5197886;27;29237;-83
2022/02/01 10:08:11;;;;;;;;;;;4.30;99.90;;;;;;5197611;27;36697;-83
2022/02/01 10:10:38;;;;;;;;;;;4.30;99.90;;;;;;5215563;27;26308;-83
2022/02/01 10:13:17;;;;;;;;;;;4.40;99.90;;;;;;5216806;27;20405;-84
2022/02/01 10:15:58;;;;;;;;;;;4.40;99.90;;;;;;5216426;27;25917;-84
2022/02/01 10:18:31;;;;;;;;;;;4.40;99.90;;;;;;5198696;27;20899;-83
2022/02/01 10:21:09;;;;;;;;;;;4.40;99.90;;;;;;5197857;27;19990;-83
2022/02/01 10:23:40;;;;;;;;;;;4.40;99.90;;;;;;5198201;27;21167;-83
2022/02/01 10:26:09;;;;;;;;;;;4.40;99.90;;;;;;5215999;27;20039;-84
2022/02/01 10:28:48;;;;;;;;;;;4.50;99.90;;;;;;5215612;27;37701;-83
2022/02/01 10:31:17;;;;;;;;;;;4.50;99.90;;;;;;5197510;27;35394;-84
2022/02/01 10:36:18;;;;;;;;;;;4.50;99.90;;;;;;5216210;27;19995;-83
2022/02/01 10:38:49;;;;;;;;;;;4.50;99.90;;;;;;5216414;27;20014;-82
2022/02/01 10:41:19;;;;;;;;;;;4.50;99.90;;;;;;5197188;27;45266;-83
2022/02/01 10:43:50;;;;;;;;;;;4.50;99.90;;;;;;5214840;27;38481;-83
2022/02/01 10:46:19;;;;;;;;;;;4.50;99.90;;;;;;5215224;27;38207;-83
2022/02/01 10:48:49;;;;;;;;;;;4.60;99.90;;;;;;5197231;27;41323;-83
2022/02/01 10:51:20;;;;;;;;;;;4.60;99.90;;;;;;5214596;27;42699;-83
2022/02/01 10:53:48;;;;;;;;;;;4.60;99.90;;;;;;5197300;27;34783;-83
2022/02/01 10:56:16;;;;;;;;;;;4.60;99.90;;;;;;5215482;27;20081;-83
2022/02/01 10:58:49;;;;;;;;;;;4.60;99.90;;;;;;5216872;27;20010;-82
2022/02/01 11:01:19;;;;;;;;;;;4.60;99.90;;;;;;5198301;27;38769;-83
2022/02/01 11:03:48;;;;;;;;;;;4.60;99.90;;;;;;5215962;27;20054;-84
2022/02/01 11:06:15;;;;;;;;;;;4.60;99.90;;;;;;5198269;27;19996;-83
2022/02/01 11:08:43;;;;;;;;;;;4.70;99.90;;;;;;5197678;27;24452;-84
2022/02/01 11:11:21;;;;;;;;;;;4.70;99.90;;;;;;5215523;27;30465;-84
2022/02/01 11:13:51;;;;;;;;;;;4.70;99.90;;;;;;5215997;27;20043;-82
2022/02/01 11:16:20;;;;;;;;;;;4.70;99.90;;;;;;5197181;27;39618;-83
2022/02/01 11:18:53;;;;;;;;;;;4.70;99.90;;;;;;5198177;27;19996;-83
2022/02/01 11:21:24;;;;;;;;;;;4.70;99.90;;;;;;5198774;27;20022;-83
2022/02/01 11:24:12;;;;;;;;;;;4.80;99.90;;;;;;5216325;27;19999;-83
2022/02/01 11:26:49;;;;;;;;;;;4.80;99.90;;;;;;5214701;27;37594;-83
2022/02/01 11:29:33;;;;;;;;;;;4.80;99.90;;;;;;5216079;27;20100;-83
2022/02/01 11:32:02;;;;;;;;;;;4.80;99.90;;;;;;5215040;27;35023;-83
2022/02/01 11:35:02;;;;;;;;;;;4.80;99.90;;;;;;5216304;27;20035;-83
2022/02/01 11:37:36;;;;;;;;;;;4.80;99.90;;;;;;5215428;27;35686;-83
2022/02/01 11:40:03;;;;;;;;;;;4.90;99.90;;;;;;5197602;27;23463;-84
2022/02/01 11:42:32;;;;;;;;;;;4.80;99.90;;;;;;5196957;27;31446;-83
2022/02/01 11:45:04;;;;;;;;;;;4.80;99.90;;;;;;5288978;27;19992;-84
2022/02/01 11:47:32;;;;;;;;;;;4.90;99.90;;;;;;5214424;27;39367;-83
2022/02/01 11:50:11;;;;;;;;;;;4.90;99.90;;;;;;5216279;27;20037;-83
2022/02/01 11:52:44;;;;;;;;;;;4.90;99.90;;;;;;5196825;27;35832;-83
2022/02/01 11:55:18;;;;;;;;;;;4.90;99.90;;;;;;5215214;27;20383;-83
2022/02/01 11:58:05;;;;;;;;;;;4.90;99.90;;;;;;5198203;27;42774;-84
2022/02/01 12:00:37;;;;;;;;;;;5.00;99.90;;;;;;5196309;27;44308;-83
2022/02/01 12:03:05;;;;;;;;;;;5.00;99.90;;;;;;5213861;27;44008;-84
2022/02/01 12:05:36;;;;;;;;;;;5.00;99.90;;;;;;5196471;27;45620;-84
2022/02/01 12:10:34;;;;;;;;;;;5.00;99.90;;;;;;5216481;27;25159;-83
2022/02/01 12:13:06;;;;;;;;;;;5.00;99.90;;;;;;5217353;27;19988;-83
2022/02/01 12:15:38;;;;;;;;;;;5.00;99.90;;;;;;5215933;27;19992;-83
2022/02/01 12:18:09;;;;;;;;;;;5.10;99.90;;;;;;5197688;27;19996;-83
2022/02/01 12:20:37;;;;;;;;;;;5.10;99.90;;;;;;5217029;27;20046;-83
2022/02/01 12:23:19;;;;;;;;;;;5.10;99.90;;;;;;5215007;27;19991;-83
2022/02/01 12:25:46;;;;;;;;;;;5.10;99.90;;;;;;5197915;27;20092;-83
2022/02/01 12:28:17;;;;;;;;;;;5.10;99.90;;;;;;5214555;27;20416;-83
2022/02/01 12:30:53;;;;;;;;;;;5.10;99.90;;;;;;5216916;27;19992;-83
2022/02/01 12:33:24;;;;;;;;;;;5.20;99.90;;;;;;5216109;27;20027;-83
2022/02/01 12:35:52;;;;;;;;;;;5.10;99.90;;;;;;5197560;27;20408;-83
2022/02/01 12:38:24;;;;;;;;;;;5.20;99.90;;;;;;5215207;27;20351;-83
2022/02/01 12:40:56;;;;;;;;;;;5.20;99.90;;;;;;5215601;27;20388;-83
2022/02/01 12:43:27;;;;;;;;;;;5.20;99.90;;;;;;5215460;27;20028;-83
2022/02/01 12:46:18;;;;;;;;;;;5.20;99.90;;;;;;5215718;27;20035;-83
2022/02/01 12:48:55;;;;;;;;;;;5.20;99.90;;;;;;5198126;27;20004;-83
2022/02/01 12:51:22;;;;;;;;;;;5.20;99.90;;;;;;5217071;27;20004;-83
2022/02/01 12:53:53;;;;;;;;;;;5.20;99.90;;;;;;5198221;27;20444;-82
2022/02/01 12:56:23;;;;;;;;;;;5.20;99.90;;;;;;5197652;27;20046;-81
2022/02/01 12:59:00;;;;;;;;;;;5.20;99.90;;;;;;5215404;27;20022;-82
2022/02/01 13:01:38;;;;;;;;;;;5.20;99.90;;;;;;5197901;27;20061;-82
2022/02/01 13:04:09;;;;;;;;;;;5.30;99.90;;;;;;5180242;27;20007;-83
2022/02/01 13:06:46;;;;;;;;;;;5.30;99.90;;;;;;5215107;27;19998;-83
2022/02/01 13:15:06;;;;;;;;;;;5.30;99.90;;;;;;5197347;27;21120;-82
2022/02/01 13:17:41;;;;;;;;;;;5.30;99.90;;;;;;5216072;27;20032;-82
2022/02/01 13:20:20;;;;;;;;;;;5.30;99.90;;;;;;5216167;27;19998;-81
2022/02/01 13:23:04;;;;;;;;;;;5.30;99.90;;;;;;5216768;27;23452;-81
2022/02/01 13:25:36;;;;;;;;;;;5.30;99.90;;;;;;5216671;27;23344;-81
2022/02/01 13:28:04;;;;;;;;;;;5.40;99.90;;;;;;5217179;27;20398;-81
2022/02/01 13:30:34;;;;;;;;;;;5.30;99.90;;;;;;5215942;27;22554;-82
2022/02/01 13:33:07;;;;;;;;;;;5.40;99.90;;;;;;5218069;27;20003;-82
2022/02/01 13:35:53;;;;;;;;;;;5.40;99.90;;;;;;5217273;27;20031;-82
2022/02/01 13:38:25;;;;;;;;;;;5.40;99.90;;;;;;5199176;27;19991;-82
2022/02/01 13:40:55;;;;;;;;;;;5.40;99.90;;;;;;5218436;27;20002;-83
2022/02/01 13:43:27;;;;;;;;;;;5.40;99.90;;;;;;5217604;27;20004;-83
2022/02/01 13:45:57;;;;;;;;;;;5.40;99.90;;;;;;5217099;27;20000;-83
2022/02/01 13:48:26;;;;;;;;;;;5.40;99.90;;;;;;5198970;27;19988;-83
2022/02/01 13:51:05;;;;;;;;;;;5.40;99.90;;;;;;5199254;27;20454;-83
2022/02/01 13:53:35;;;;;;;;;;;5.40;99.90;;;;;;5199505;27;20051;-82
2022/02/01 13:56:04;;;;;;;;;;;5.50;99.90;;;;;;5216855;27;20018;-82
2022/02/01 13:58:33;;;;;;;;;;;5.50;99.90;;;;;;5217213;27;19999;-82
2022/02/01 14:01:14;;;;;;;;;;;5.50;99.90;;;;;;5198888;27;19991;-82
2022/02/01 14:04:04;;;;;;;;;;;5.50;99.90;;;;;;5201480;27;20047;-82
2022/02/01 14:12:41;;;;;;;;;;;5.60;99.90;;;;;;5161244;27;20007;-82
2022/02/01 14:32:04;;;;;;;;;;;5.60;99.90;;;;;;5216120;27;20002;-82
2022/02/01 14:34:51;;;;;;;;;;;5.60;99.90;;;;;;5215098;27;38822;-82
2022/02/01 14:37:28;;;;;;;;;;;5.70;99.90;;;;;;5214839;27;43379;-82
2022/02/01 14:45:26;;;;;;;;;;;5.70;99.90;;;;;;5216892;27;20010;-82
2022/02/01 14:47:53;;;;;;;;;;;5.70;99.90;;;;;;5214696;27;44909;-82
2022/02/01 14:50:23;;;;;;;;;;;5.70;99.90;;;;;;5214796;27;40699;-82
2022/02/01 14:52:50;;;;;;;;;;;5.80;99.90;;;;;;5214982;27;39421;-82
2022/02/01 14:55:22;;;;;;;;;;;5.80;99.90;;;;;;5216656;27;20014;-82
2022/02/01 15:03:54;;;;;;;;;;;5.80;99.90;;;;;;5217388;27;20389;-82
2022/02/01 15:14:19;;;;;;;;;;;5.90;99.90;;;;;;5216247;27;42661;-83
2022/02/01 15:16:52;;;;;;;;;;;5.90;99.90;;;;;;5197796;27;39127;-83
2022/02/01 15:19:21;;;;;;;;;;;5.90;99.90;;;;;;5214694;27;37415;-82
2022/02/01 15:21:51;;;;;;;;;;;5.90;99.90;;;;;;5214487;27;42229;-83
2022/02/01 15:24:41;;;;;;;;;;;5.90;99.90;;;;;;5215492;27;20695;-82
2022/02/01 15:27:08;;;;;;;;;;;5.90;99.90;;;;;;5216537;27;39312;-82
2022/02/01 15:29:38;;;;;;;;;;;5.90;99.90;;;;;;5215266;27;26349;-82
2022/02/01 15:32:05;;;;;;;;;;;6.00;99.90;;;;;;5198117;27;19992;-83
2022/02/01 15:34:55;;;;;;;;;;;5.90;99.90;;;;;;5216156;27;19984;-83
2022/02/01 15:37:29;;;;;;;;;;;6.00;99.90;;;;;;5196910;27;32043;-82
2022/02/01 15:54:56;;;;;;;;;;;6.00;99.90;;;;;;5216414;27;28995;-83
2022/02/01 15:56:58;;;;;;;;;;;6.00;99.90;;;;;;5200799;27;31235;-82
2022/02/01 15:59:30;;;;;;;;;;;6.00;99.90;;;;;;5215319;27;23683;-83
2022/02/01 16:02:14;;;;;;;;;;;6.00;99.90;;;;;;5198745;27;26587;-82
2022/02/01 16:04:53;;;;;;;;;;;6.00;99.90;;;;;;5197371;27;26587;-83
2022/02/01 16:07:22;;;;;;;;;;;6.10;99.90;;;;;;5215342;27;26927;-83
2022/02/01 16:10:33;;;;;;;;;;;6.10;99.90;;;;;;5215654;27;20003;-83
2022/02/01 16:13:10;;;;;;;;;;;6.10;99.90;;;;;;5215203;27;19998;-83
2022/02/01 16:15:42;;;;;;;;;;;6.10;99.90;;;;;;5216237;27;19996;-83
2022/02/01 16:18:15;;;;;;;;;;;6.10;99.90;;;;;;5215961;27;20043;-83
2022/02/01 16:20:45;;;;;;;;;;;6.10;99.90;;;;;;5198281;27;19991;-82
2022/02/01 16:23:14;;;;;;;;;;;6.10;99.90;;;;;;5216446;27;20385;-83
2022/02/01 16:25:41;;;;;;;;;;;6.10;99.90;;;;;;5216840;27;20006;-83
2022/02/01 16:28:12;;;;;;;;;;;6.10;99.90;;;;;;5215355;27;20000;-83
2022/02/01 16:30:47;;;;;;;;;;;6.20;99.90;;;;;;5215774;27;20369;-83
2022/02/01 16:33:17;;;;;;;;;;;6.20;99.90;;;;;;5215318;27;19996;-82
2022/02/01 16:35:47;;;;;;;;;;;6.20;99.90;;;;;;5197765;27;19991;-84
2022/02/01 16:38:16;;;;;;;;;;;6.20;99.90;;;;;;5215280;27;20392;-83
2022/02/01 16:41:02;;;;;;;;;;;6.20;99.90;;;;;;5215970;27;20011;-83
2022/02/01 16:43:36;;;;;;;;;;;6.20;99.90;;;;;;5198098;27;20002;-83
2022/02/01 16:46:09;;;;;;;;;;;6.20;99.90;;;;;;5198036;27;20389;-83
2022/02/01 16:48:36;;;;;;;;;;;6.30;99.90;;;;;;5198034;27;20772;-83
2022/02/01 16:51:09;;;;;;;;;;;6.30;99.90;;;;;;5215737;27;20033;-83
2022/02/01 16:53:47;;;;;;;;;;;6.30;99.90;;;;;;5215719;27;20014;-83
2022/02/01 17:01:50;;;;;;;;;;;6.30;99.90;;;;;;5216619;27;20026;-83
2022/02/01 17:04:22;;;;;;;;;;;6.30;99.90;;;;;;5215767;27;20006;-84
2022/02/01 17:06:55;;;;;;;;;;;6.40;99.90;;;;;;5217025;27;20106;-83
2022/02/01 17:09:26;;;;;;;;;;;6.30;99.90;;;;;;5217093;27;20035;-84
2022/02/01 17:12:30;;;;;;;;;;;6.30;99.90;;;;;;5198192;27;20027;-83
2022/02/01 17:18:02;;;;;;;;;;;6.40;99.90;;;;;;5215129;27;20456;-83
2022/02/01 17:23:05;;;;;;;;;;;6.40;99.90;;;;;;5216269;27;26009;-84
2022/02/01 17:25:42;;;;;;;;;;;6.40;99.90;;;;;;5197786;27;20000;-83
2022/02/01 17:28:14;;;;;;;;;;;6.40;99.90;;;;;;5197651;27;20364;-83
2022/02/01 17:30:48;;;;;;;;;;;6.40;99.90;;;;;;5198711;27;20004;-84
2022/02/01 17:33:16;;;;;;;;;;;6.40;99.90;;;;;;5215902;27;20010;-84
2022/02/01 17:35:49;;;;;;;;;;;6.40;99.90;;;;;;5214990;27;20004;-84
2022/02/01 17:38:42;;;;;;;;;;;6.40;99.90;;;;;;5200551;27;19984;-83